createdAt,value
2018-02-01T00:00:36.835Z,60.19
2018-02-01T00:01:37.306Z,60.11
2018-02-01T00:02:37.776Z,60.16
2018-02-01T00:03:38.245Z,60.19
2018-02-01T00:04:38.715Z,60.13
2018-02-01T00:05:39.186Z,60.02
2018-02-01T00:06:39.656Z,60.13
2018-02-01T00:07:40.128Z,60.13
2018-02-01T00:08:40.598Z,60.24
2018-02-01T00:09:41.075Z,60.16
2018-02-01T00:10:41.542Z,60.10
2018-02-01T00:11:42.011Z,60.10
2018-02-01T00:12:42.480Z,60.12
2018-02-01T00:13:42.951Z,60.12
2018-02-01T00:14:43.424Z,60.23
2018-02-01T00:15:43.892Z,60.26
2018-02-01T00:16:44.363Z,60.20
2018-02-01T00:17:44.833Z,60.15
2018-02-01T00:18:45.304Z,60.17
2018-02-01T00:19:45.773Z,60.17
2018-02-01T00:20:46.244Z,60.22
2018-02-01T00:21:46.714Z,60.25
2018-02-01T00:22:47.186Z,60.25
2018-02-01T00:23:47.657Z,60.30
2018-02-01T00:24:48.127Z,60.30
2018-02-01T00:25:48.598Z,60.30
2018-02-01T00:26:49.068Z,60.38
2018-02-01T00:27:49.537Z,60.34
2018-02-01T00:28:50.012Z,60.37
2018-02-01T00:29:50.477Z,60.37
2018-02-01T00:30:50.950Z,60.43
2018-02-01T00:31:51.420Z,60.34
2018-02-01T00:32:51.889Z,60.31
2018-02-01T00:33:52.359Z,60.34
2018-02-01T00:34:52.828Z,60.36
2018-02-01T00:35:53.300Z,60.39
2018-02-01T00:36:53.770Z,60.44
2018-02-01T00:37:54.239Z,60.47
2018-02-01T00:38:54.711Z,60.55
2018-02-01T00:39:55.182Z,60.53
2018-02-01T00:40:55.654Z,60.57
2018-02-01T00:41:56.120Z,60.60
2018-02-01T00:42:56.590Z,60.66
2018-02-01T00:43:57.061Z,60.65
2018-02-01T00:44:57.531Z,60.54
2018-02-01T00:45:58.001Z,60.60
2018-02-01T00:46:58.472Z,60.57
2018-02-01T00:47:58.943Z,60.51
2018-02-01T00:48:59.413Z,60.59
2018-02-01T00:49:59.881Z,60.54
2018-02-01T00:51:00.352Z,60.46
2018-02-01T00:52:00.823Z,60.42
2018-02-01T00:53:01.293Z,60.37
2018-02-01T00:54:01.762Z,60.29
2018-02-01T00:55:02.234Z,60.34
2018-02-01T00:56:02.701Z,60.37
2018-02-01T00:57:03.178Z,60.37
2018-02-01T00:58:03.643Z,60.39
2018-02-01T00:59:04.110Z,60.50
2018-02-01T01:00:04.580Z,60.47
2018-02-01T01:01:05.051Z,60.55
2018-02-01T01:02:05.520Z,60.50
2018-02-01T01:03:05.993Z,60.52
2018-02-01T01:04:06.461Z,60.52
2018-02-01T01:05:06.930Z,60.49
2018-02-01T01:06:07.401Z,60.63
2018-02-01T01:07:07.870Z,60.62
2018-02-01T01:08:08.341Z,60.65
2018-02-01T01:09:08.809Z,60.67
2018-02-01T01:10:09.280Z,60.61
2018-02-01T01:11:09.750Z,60.64
2018-02-01T01:12:10.220Z,60.72
2018-02-01T01:13:10.688Z,60.53
2018-02-01T01:14:11.159Z,60.67
2018-02-01T01:15:11.631Z,60.72
2018-02-01T01:16:12.098Z,60.72
2018-02-01T01:17:12.571Z,60.74
2018-02-01T01:18:13.036Z,60.74
2018-02-01T01:19:13.508Z,60.82
2018-02-01T01:20:13.978Z,60.78
2018-02-01T01:21:14.446Z,60.82
2018-02-01T01:22:14.915Z,60.90
2018-02-01T01:23:15.389Z,60.90
2018-02-01T01:24:15.856Z,61.03
2018-02-01T01:25:16.326Z,61.00
2018-02-01T01:26:16.795Z,61.03
2018-02-01T01:27:17.266Z,61.13
2018-02-01T01:28:17.735Z,61.16
2018-02-01T01:29:18.203Z,61.21
2018-02-01T01:30:18.672Z,61.21
2018-02-01T01:31:19.142Z,61.21
2018-02-01T01:32:19.614Z,61.26
2018-02-01T01:33:20.083Z,61.34
2018-02-01T01:34:20.553Z,61.37
2018-02-01T01:35:21.022Z,61.44
2018-02-01T01:36:21.493Z,61.52
2018-02-01T01:37:21.960Z,61.57
2018-02-01T01:38:22.431Z,61.63
2018-02-01T01:39:22.899Z,61.67
2018-02-01T01:40:23.368Z,61.60
2018-02-01T01:41:23.840Z,61.73
2018-02-01T01:42:24.309Z,61.70
2018-02-01T01:43:24.780Z,61.79
2018-02-01T01:44:25.250Z,61.73
2018-02-01T01:45:25.718Z,61.73
2018-02-01T01:46:26.185Z,61.76
2018-02-01T01:47:26.656Z,61.78
2018-02-01T01:48:27.126Z,61.83
2018-02-01T01:49:27.597Z,61.69
2018-02-01T01:50:28.064Z,61.66
2018-02-01T01:51:28.534Z,61.62
2018-02-01T01:52:29.003Z,61.47
2018-02-01T01:53:29.475Z,61.50
2018-02-01T01:54:29.942Z,61.58
2018-02-01T01:55:30.412Z,61.61
2018-02-01T01:56:30.881Z,61.55
2018-02-01T01:57:31.352Z,61.50
2018-02-01T01:58:31.821Z,61.47
2018-02-01T01:59:32.289Z,61.49
2018-02-01T02:00:32.763Z,61.52
2018-02-01T02:01:33.276Z,61.49
2018-02-01T02:02:33.697Z,61.49
2018-02-01T02:03:34.168Z,61.57
2018-02-01T02:04:34.636Z,61.62
2018-02-01T02:05:35.108Z,61.62
2018-02-01T02:06:35.576Z,61.60
2018-02-01T02:07:36.044Z,61.54
2018-02-01T02:08:36.514Z,61.52
2018-02-01T02:09:36.984Z,61.48
2018-02-01T02:10:37.452Z,61.53
2018-02-01T02:11:37.921Z,61.45
2018-02-01T02:12:38.390Z,61.50
2018-02-01T02:13:38.863Z,61.37
2018-02-01T02:14:39.330Z,61.43
2018-02-01T02:15:39.798Z,61.34
2018-02-01T02:16:40.269Z,61.26
2018-02-01T02:17:40.738Z,61.21
2018-02-01T02:18:41.208Z,61.28
2018-02-01T02:19:41.675Z,61.15
2018-02-01T02:20:42.145Z,61.23
2018-02-01T02:21:42.614Z,61.13
2018-02-01T02:22:43.083Z,61.09
2018-02-01T02:23:43.553Z,61.09
2018-02-01T02:24:44.021Z,61.15
2018-02-01T02:25:44.491Z,61.20
2018-02-01T02:26:44.959Z,61.12
2018-02-01T02:27:45.430Z,61.06
2018-02-01T02:28:45.901Z,61.09
2018-02-01T02:29:46.369Z,61.00
2018-02-01T02:30:46.838Z,61.03
2018-02-01T02:31:47.306Z,61.14
2018-02-01T02:32:47.777Z,61.11
2018-02-01T02:33:48.247Z,61.24
2018-02-01T02:34:48.712Z,61.27
2018-02-01T02:35:49.182Z,61.24
2018-02-01T02:36:49.652Z,61.32
2018-02-01T02:37:50.121Z,61.35
2018-02-01T02:38:50.589Z,61.26
2018-02-01T02:39:51.058Z,61.24
2018-02-01T02:40:51.526Z,61.21
2018-02-01T02:41:51.996Z,61.37
2018-02-01T02:42:52.465Z,61.44
2018-02-01T02:43:52.934Z,61.58
2018-02-01T02:44:53.404Z,61.66
2018-02-01T02:45:53.873Z,61.68
2018-02-01T02:46:54.341Z,61.76
2018-02-01T02:47:54.812Z,61.73
2018-02-01T02:48:55.279Z,61.84
2018-02-01T02:49:55.748Z,61.86
2018-02-01T02:50:56.217Z,61.94
2018-02-01T02:51:56.684Z,61.91
2018-02-01T02:52:57.155Z,61.96
2018-02-01T02:53:57.627Z,62.04
2018-02-01T02:54:58.104Z,62.20
2018-02-01T02:55:58.563Z,62.25
2018-02-01T02:56:59.031Z,62.30
2018-02-01T02:57:59.500Z,62.41
2018-02-01T02:58:59.968Z,62.38
2018-02-01T03:00:00.441Z,62.43
2018-02-01T03:01:00.906Z,62.48
2018-02-01T03:02:01.387Z,62.53
2018-02-01T03:03:01.844Z,62.58
2018-02-01T03:04:02.314Z,62.61
2018-02-01T03:05:02.784Z,62.69
2018-02-01T03:06:03.251Z,62.82
2018-02-01T03:07:03.722Z,62.79
2018-02-01T03:08:04.188Z,62.82
2018-02-01T03:09:04.661Z,62.90
2018-02-01T03:10:05.127Z,62.93
2018-02-01T03:11:05.596Z,62.84
2018-02-01T03:12:06.064Z,62.79
2018-02-01T03:13:06.535Z,62.89
2018-02-01T03:14:07.002Z,62.89
2018-02-01T03:15:07.471Z,62.97
2018-02-01T03:16:07.940Z,63.00
2018-02-01T03:17:08.410Z,62.99
2018-02-01T03:18:08.885Z,62.97
2018-02-01T03:19:09.354Z,62.96
2018-02-01T03:21:10.288Z,62.99
2018-02-01T03:22:10.760Z,63.01
2018-02-01T03:23:11.230Z,63.04
2018-02-01T03:24:11.697Z,63.09
2018-02-01T03:26:23.967Z,63.14
2018-02-01T03:27:13.106Z,63.16
2018-02-01T03:28:13.566Z,63.30
2018-02-01T03:29:14.040Z,63.29
2018-02-01T03:30:14.511Z,63.40
2018-02-01T03:32:15.441Z,63.42
2018-02-01T03:33:15.916Z,63.56
2018-02-01T03:34:16.387Z,63.55
2018-02-01T03:35:16.853Z,63.63
2018-02-01T03:36:17.326Z,63.61
2018-02-01T03:37:17.791Z,63.68
2018-02-01T03:39:18.722Z,63.95
2018-02-01T03:40:19.197Z,63.97
2018-02-01T03:41:19.667Z,63.92
2018-02-01T03:42:20.135Z,63.92
2018-02-01T03:43:20.605Z,64.02
2018-02-01T03:44:21.076Z,64.07
2018-02-01T03:45:21.543Z,64.10
2018-02-01T03:46:22.007Z,64.17
2018-02-01T03:47:22.481Z,64.17
2018-02-01T03:49:23.418Z,64.17
2018-02-01T03:50:23.880Z,64.22
2018-02-01T03:51:24.353Z,64.17
2018-02-01T03:53:25.291Z,64.17
2018-02-01T03:54:25.762Z,64.14
2018-02-01T03:55:26.229Z,64.19
2018-02-01T03:56:26.700Z,64.16
2018-02-01T03:57:27.163Z,64.22
2018-02-01T03:58:27.637Z,64.29
2018-02-01T03:59:28.104Z,64.21
2018-02-01T04:00:28.572Z,64.21
2018-02-01T04:01:29.044Z,64.27
2018-02-01T04:02:29.512Z,64.24
2018-02-01T04:03:29.982Z,64.29
2018-02-01T04:04:30.449Z,64.34
2018-02-01T04:05:30.915Z,64.39
2018-02-01T04:06:31.386Z,64.39
2018-02-01T04:07:31.857Z,64.34
2018-02-01T04:08:32.325Z,64.34
2018-02-01T04:09:32.787Z,64.36
2018-02-01T04:10:33.263Z,64.36
2018-02-01T04:11:33.731Z,64.39
2018-02-01T04:12:34.200Z,64.41
2018-02-01T04:13:34.669Z,64.41
2018-02-01T04:14:35.138Z,64.36
2018-02-01T04:16:36.073Z,64.43
2018-02-01T04:17:36.543Z,64.43
2018-02-01T04:18:37.011Z,64.46
2018-02-01T04:19:37.479Z,64.46
2018-02-01T04:20:37.947Z,64.48
2018-02-01T04:21:49.997Z,64.46
2018-02-01T04:22:38.887Z,64.43
2018-02-01T04:23:39.355Z,64.43
2018-02-01T04:24:39.824Z,64.43
2018-02-01T04:25:40.295Z,64.40
2018-02-01T04:26:40.762Z,64.40
2018-02-01T04:27:41.225Z,64.42
2018-02-01T04:30:42.636Z,64.50
2018-02-01T04:31:43.102Z,64.52
2018-02-01T04:33:44.041Z,64.55
2018-02-01T04:34:44.504Z,64.52
2018-02-01T04:35:44.977Z,64.54
2018-02-01T04:36:57.081Z,64.55
2018-02-01T04:37:45.913Z,64.52
2018-02-01T04:38:46.382Z,64.54
2018-02-01T04:40:47.319Z,64.54
2018-02-01T04:41:47.788Z,64.57
2018-02-01T04:42:48.258Z,64.56
2018-02-01T04:43:48.723Z,64.51
2018-02-01T04:44:49.192Z,64.59
2018-02-01T04:45:49.655Z,64.51
2018-02-01T04:46:50.129Z,64.51
2018-02-01T04:47:50.598Z,64.54
2018-02-01T04:48:51.066Z,64.51
2018-02-01T04:49:51.534Z,64.53
2018-02-01T04:51:52.469Z,64.50
2018-02-01T04:52:52.938Z,64.48
2018-02-01T04:53:53.408Z,64.48
2018-02-01T04:54:53.877Z,64.42
2018-02-01T04:55:54.342Z,64.40
2018-02-01T04:56:54.813Z,64.45
2018-02-01T04:57:55.280Z,64.42
2018-02-01T04:58:55.748Z,64.42
2018-02-01T04:59:56.214Z,64.39
2018-02-01T05:02:57.621Z,64.42
2018-02-01T05:03:58.089Z,64.44
2018-02-01T05:04:58.558Z,64.41
2018-02-01T05:05:59.020Z,64.52
2018-02-01T05:07:11.073Z,64.55
2018-02-01T05:07:59.960Z,64.46
2018-02-01T05:10:00.893Z,64.51
2018-02-01T05:11:01.367Z,64.62
2018-02-01T05:12:14.076Z,64.59
2018-02-01T05:13:02.302Z,64.64
2018-02-01T05:14:02.770Z,64.59
2018-02-01T05:15:03.239Z,64.64
2018-02-01T05:16:03.710Z,64.64
2018-02-01T05:17:04.169Z,64.64
2018-02-01T05:18:04.642Z,64.69
2018-02-01T05:19:05.111Z,64.74
2018-02-01T05:20:05.579Z,64.76
2018-02-01T05:21:06.041Z,64.82
2018-02-01T05:24:07.455Z,64.89
2018-02-01T05:26:08.387Z,64.97
2018-02-01T05:27:08.851Z,64.97
2018-02-01T05:28:09.324Z,65.01
2018-02-01T05:29:09.790Z,64.99
2018-02-01T05:30:10.259Z,65.04
2018-02-01T05:31:10.720Z,65.04
2018-02-01T05:32:11.193Z,65.04
2018-02-01T05:33:11.662Z,65.12
2018-02-01T05:34:12.133Z,65.16
2018-02-01T05:35:12.598Z,65.19
2018-02-01T05:36:13.065Z,65.24
2018-02-01T05:37:13.536Z,65.24
2018-02-01T05:38:13.996Z,65.31
2018-02-01T05:39:14.470Z,65.37
2018-02-01T05:40:14.935Z,65.42
2018-02-01T05:41:15.405Z,65.44
2018-02-01T05:42:15.874Z,65.47
2018-02-01T05:43:16.341Z,65.47
2018-02-01T05:44:16.808Z,65.52
2018-02-01T05:46:17.746Z,65.52
2018-02-01T05:49:19.148Z,65.59
2018-02-01T05:50:19.617Z,65.59
2018-02-01T05:51:20.080Z,65.61
2018-02-01T05:52:20.551Z,65.66
2018-02-01T05:54:21.491Z,65.66
2018-02-01T05:55:21.950Z,65.69
2018-02-01T05:56:22.425Z,65.74
2018-02-01T05:57:22.893Z,65.74
2018-02-01T05:59:23.827Z,65.81
2018-02-01T06:00:24.297Z,65.84
2018-02-01T06:02:25.231Z,65.89
2018-02-01T06:03:25.694Z,65.94
2018-02-01T06:04:26.164Z,65.97
2018-02-01T06:05:26.633Z,66.02
2018-02-01T06:06:27.098Z,66.07
2018-02-01T06:07:27.570Z,66.09
2018-02-01T06:08:28.039Z,66.12
2018-02-01T06:09:28.506Z,66.17
2018-02-01T06:10:28.968Z,66.17
2018-02-01T06:11:29.442Z,66.17
2018-02-01T06:12:29.908Z,66.20
2018-02-01T06:13:30.380Z,66.22
2018-02-01T06:14:30.844Z,66.21
2018-02-01T06:15:31.314Z,66.27
2018-02-01T06:16:31.779Z,66.27
2018-02-01T06:17:32.244Z,66.24
2018-02-01T06:19:33.234Z,66.34
2018-02-01T06:20:33.649Z,66.34
2018-02-01T06:21:34.118Z,66.34
2018-02-01T06:22:34.586Z,66.34
2018-02-01T06:23:35.054Z,66.36
2018-02-01T06:24:35.521Z,66.39
2018-02-01T06:25:35.988Z,66.39
2018-02-01T06:27:36.928Z,66.44
2018-02-01T06:28:37.390Z,66.43
2018-02-01T06:30:38.321Z,66.48
2018-02-01T06:31:38.794Z,66.49
2018-02-01T06:32:39.262Z,66.48
2018-02-01T06:33:39.730Z,66.51
2018-02-01T06:35:40.668Z,66.51
2018-02-01T06:36:41.127Z,66.51
2018-02-01T06:37:41.600Z,66.53
2018-02-01T06:38:42.067Z,66.56
2018-02-01T06:40:43.002Z,66.55
2018-02-01T06:41:43.470Z,66.55
2018-02-01T06:42:43.937Z,66.58
2018-02-01T06:43:44.400Z,66.60
2018-02-01T06:44:44.871Z,66.60
2018-02-01T06:45:45.341Z,66.60
2018-02-01T06:46:45.807Z,66.60
2018-02-01T06:47:46.274Z,66.65
2018-02-01T06:48:46.740Z,66.65
2018-02-01T06:49:47.209Z,66.65
2018-02-01T06:50:47.677Z,66.67
2018-02-01T06:51:48.144Z,66.65
2018-02-01T06:52:48.613Z,66.65
2018-02-01T06:53:49.080Z,66.65
2018-02-01T06:54:49.541Z,66.64
2018-02-01T06:55:50.014Z,66.64
2018-02-01T06:56:50.481Z,66.64
2018-02-01T06:57:50.948Z,66.67
2018-02-01T06:58:51.417Z,66.69
2018-02-01T06:59:51.885Z,66.67
2018-02-01T07:00:52.350Z,66.66
2018-02-01T07:01:52.819Z,66.74
2018-02-01T07:02:53.286Z,66.74
2018-02-01T07:03:53.754Z,66.79
2018-02-01T07:04:54.222Z,66.79
2018-02-01T07:05:54.689Z,66.79
2018-02-01T07:06:55.156Z,66.79
2018-02-01T07:07:55.619Z,66.79
2018-02-01T07:08:56.094Z,66.76
2018-02-01T07:09:56.559Z,66.78
2018-02-01T07:11:57.492Z,66.76
2018-02-01T07:16:11.197Z,66.76
2018-02-01T07:16:59.831Z,66.76
2018-02-01T07:18:00.301Z,66.76
2018-02-01T07:19:00.765Z,66.73
2018-02-01T07:20:01.238Z,66.68
2018-02-01T07:21:01.695Z,66.68
2018-02-01T07:22:02.169Z,66.68
2018-02-01T07:24:03.103Z,66.65
2018-02-01T07:25:03.565Z,66.68
2018-02-01T07:26:04.038Z,66.68
2018-02-01T07:27:04.506Z,66.68
2018-02-01T07:28:04.974Z,66.68
2018-02-01T07:29:05.440Z,66.68
2018-02-01T07:30:05.907Z,66.68
2018-02-01T07:31:06.371Z,66.68
2018-02-01T07:32:06.845Z,66.68
2018-02-01T07:33:07.310Z,66.67
2018-02-01T07:34:07.775Z,66.68
2018-02-01T07:35:08.245Z,66.65
2018-02-01T07:36:08.714Z,66.65
2018-02-01T07:37:09.180Z,66.68
2018-02-01T07:38:09.648Z,66.68
2018-02-01T07:39:10.115Z,66.68
2018-02-01T07:40:10.578Z,66.68
2018-02-01T07:41:11.049Z,66.68
2018-02-01T07:42:11.521Z,66.68
2018-02-01T07:43:11.983Z,66.71
2018-02-01T07:44:12.448Z,66.68
2018-02-01T07:45:12.914Z,66.71
2018-02-01T07:46:13.389Z,66.73
2018-02-01T07:47:13.854Z,66.71
2018-02-01T07:48:14.322Z,66.74
2018-02-01T07:49:14.782Z,66.76
2018-02-01T07:50:15.257Z,66.74
2018-02-01T07:51:15.726Z,66.74
2018-02-01T07:53:16.660Z,66.72
2018-02-01T07:54:17.128Z,66.74
2018-02-01T07:55:17.594Z,66.75
2018-02-01T07:56:18.064Z,66.75
2018-02-01T07:57:18.529Z,66.72
2018-02-01T07:58:19.017Z,66.72
2018-02-01T07:59:19.466Z,66.70
2018-02-01T08:00:19.932Z,66.70
2018-02-01T08:01:20.395Z,66.70
2018-02-01T08:02:20.865Z,66.66
2018-02-01T08:03:21.331Z,66.66
2018-02-01T08:04:21.802Z,66.66
2018-02-01T08:05:22.270Z,66.66
2018-02-01T08:06:22.735Z,66.66
2018-02-01T08:07:23.205Z,66.61
2018-02-01T08:08:23.671Z,66.64
2018-02-01T08:09:24.138Z,66.62
2018-02-01T08:10:24.601Z,66.59
2018-02-01T08:12:25.541Z,66.62
2018-02-01T08:13:26.009Z,66.57
2018-02-01T08:14:26.471Z,66.60
2018-02-01T08:15:26.943Z,66.58
2018-02-01T08:16:27.412Z,66.58
2018-02-01T08:18:28.346Z,66.59
2018-02-01T08:19:28.815Z,66.62
2018-02-01T08:20:29.282Z,66.59
2018-02-01T08:21:29.744Z,66.60
2018-02-01T08:22:30.216Z,66.55
2018-02-01T08:23:30.684Z,66.50
2018-02-01T08:25:31.616Z,66.51
2018-02-01T08:26:32.088Z,66.44
2018-02-01T08:27:32.554Z,66.44
2018-02-01T08:28:33.023Z,66.40
2018-02-01T08:29:33.490Z,66.37
2018-02-01T08:30:33.960Z,66.35
2018-02-01T08:31:34.430Z,66.33
2018-02-01T08:32:34.894Z,66.31
2018-02-01T08:33:35.362Z,66.28
2018-02-01T08:34:35.828Z,66.23
2018-02-01T08:35:36.298Z,66.21
2018-02-01T08:36:36.766Z,66.17
2018-02-01T08:37:37.228Z,66.12
2018-02-01T08:38:37.703Z,66.09
2018-02-01T08:39:38.168Z,66.10
2018-02-01T08:40:38.638Z,66.10
2018-02-01T08:41:39.105Z,66.06
2018-02-01T08:42:39.573Z,66.03
2018-02-01T08:43:40.040Z,66.01
2018-02-01T08:44:40.512Z,65.96
2018-02-01T08:45:40.975Z,65.94
2018-02-01T08:46:41.437Z,65.91
2018-02-01T08:47:41.912Z,65.94
2018-02-01T08:48:42.381Z,65.97
2018-02-01T08:49:42.848Z,65.95
2018-02-01T08:50:43.315Z,65.95
2018-02-01T08:52:44.253Z,65.96
2018-02-01T08:53:44.716Z,65.96
2018-02-01T08:54:45.188Z,65.94
2018-02-01T08:55:45.656Z,65.94
2018-02-01T08:56:46.123Z,65.97
2018-02-01T08:57:46.592Z,65.95
2018-02-01T08:58:47.055Z,65.98
2018-02-01T08:59:47.530Z,65.96
2018-02-01T09:00:47.999Z,65.93
2018-02-01T09:01:48.465Z,65.94
2018-02-01T09:02:48.934Z,65.92
2018-02-01T09:03:49.401Z,65.92
2018-02-01T09:04:49.873Z,65.93
2018-02-01T09:05:50.333Z,65.88
2018-02-01T09:06:50.806Z,65.93
2018-02-01T09:07:51.276Z,65.91
2018-02-01T09:08:51.736Z,65.89
2018-02-01T09:09:52.209Z,65.86
2018-02-01T09:10:52.677Z,65.87
2018-02-01T09:11:53.148Z,65.87
2018-02-01T09:12:53.610Z,65.82
2018-02-01T09:13:54.084Z,65.80
2018-02-01T09:14:54.553Z,65.80
2018-02-01T09:15:55.020Z,65.81
2018-02-01T09:16:55.489Z,65.76
2018-02-01T09:17:55.952Z,65.71
2018-02-01T09:18:56.426Z,65.69
2018-02-01T09:19:56.894Z,65.67
2018-02-01T09:20:57.369Z,65.61
2018-02-01T09:21:57.831Z,65.59
2018-02-01T09:22:58.302Z,65.57
2018-02-01T09:23:58.769Z,65.57
2018-02-01T09:24:59.237Z,65.52
2018-02-01T09:27:00.171Z,65.47
2018-02-01T09:28:00.643Z,65.45
2018-02-01T09:29:01.112Z,65.40
2018-02-01T09:30:01.579Z,65.42
2018-02-01T09:31:02.042Z,65.40
2018-02-01T09:32:02.518Z,65.35
2018-02-01T09:34:03.453Z,65.30
2018-02-01T09:35:03.922Z,65.27
2018-02-01T09:36:04.393Z,65.25
2018-02-01T09:37:04.857Z,65.31
2018-02-01T09:38:05.330Z,65.33
2018-02-01T09:39:05.801Z,65.39
2018-02-01T09:40:06.268Z,65.41
2018-02-01T09:41:06.731Z,65.49
2018-02-01T09:42:07.203Z,65.50
2018-02-01T09:43:07.721Z,65.60
2018-02-01T09:44:08.140Z,65.62
2018-02-01T09:45:08.609Z,65.65
2018-02-01T09:46:09.077Z,65.65
2018-02-01T09:47:09.546Z,65.71
2018-02-01T09:48:10.010Z,65.73
2018-02-01T09:50:10.952Z,65.77
2018-02-01T09:52:11.885Z,65.87
2018-02-01T09:53:12.365Z,65.85
2018-02-01T09:54:12.828Z,65.85
2018-02-01T09:55:13.298Z,65.85
2018-02-01T09:56:13.762Z,65.85
2018-02-01T09:57:14.238Z,65.75
2018-02-01T09:58:14.706Z,65.86
2018-02-01T09:59:15.174Z,65.78
2018-02-01T10:00:15.642Z,65.68
2018-02-01T10:01:16.111Z,65.71
2018-02-01T10:02:16.581Z,65.63
2018-02-01T10:03:17.049Z,65.58
2018-02-01T10:04:17.518Z,65.55
2018-02-01T10:05:17.989Z,65.45
2018-02-01T10:06:18.458Z,65.46
2018-02-01T10:07:18.923Z,65.45
2018-02-01T10:08:19.395Z,65.38
2018-02-01T10:09:19.866Z,65.33
2018-02-01T10:10:20.335Z,65.30
2018-02-01T10:11:20.803Z,65.30
2018-02-01T10:12:21.273Z,65.28
2018-02-01T10:13:21.746Z,65.18
2018-02-01T10:14:22.203Z,65.13
2018-02-01T10:15:22.679Z,65.08
2018-02-01T10:16:23.149Z,65.11
2018-02-01T10:17:23.619Z,65.05
2018-02-01T10:18:24.081Z,64.98
2018-02-01T10:19:24.558Z,64.96
2018-02-01T10:20:25.027Z,64.96
2018-02-01T10:21:25.496Z,64.91
2018-02-01T10:22:25.964Z,64.89
2018-02-01T10:23:26.434Z,64.89
2018-02-01T10:24:26.904Z,64.87
2018-02-01T10:25:27.369Z,64.76
2018-02-01T10:27:28.311Z,64.79
2018-02-01T10:28:28.782Z,64.74
2018-02-01T10:29:29.246Z,64.72
2018-02-01T10:31:30.194Z,64.65
2018-02-01T10:32:30.659Z,64.69
2018-02-01T10:33:31.131Z,64.70
2018-02-01T10:34:31.598Z,64.70
2018-02-01T10:35:32.068Z,64.65
2018-02-01T10:36:32.534Z,64.71
2018-02-01T10:37:33.008Z,64.74
2018-02-01T10:38:33.477Z,64.66
2018-02-01T10:39:33.947Z,64.77
2018-02-01T10:40:34.417Z,64.84
2018-02-01T10:41:34.887Z,64.77
2018-02-01T10:42:35.356Z,64.75
2018-02-01T10:43:35.825Z,64.72
2018-02-01T10:44:36.293Z,64.67
2018-02-01T10:45:36.765Z,64.54
2018-02-01T10:46:37.233Z,64.41
2018-02-01T10:47:37.702Z,64.44
2018-02-01T10:48:38.201Z,64.34
2018-02-01T10:49:38.645Z,64.26
2018-02-01T10:51:39.587Z,64.15
2018-02-01T10:52:40.053Z,64.02
2018-02-01T10:53:40.522Z,64.00
2018-02-01T10:54:40.986Z,63.94
2018-02-01T10:55:41.460Z,63.98
2018-02-01T10:56:41.931Z,63.74
2018-02-01T10:57:42.402Z,63.74
2018-02-01T10:58:42.922Z,63.74
2018-02-01T10:59:43.339Z,63.63
2018-02-01T11:00:43.810Z,63.61
2018-02-01T11:01:44.276Z,63.69
2018-02-01T11:02:44.749Z,63.67
2018-02-01T11:04:45.690Z,63.80
2018-02-01T11:05:46.159Z,63.97
2018-02-01T11:07:47.097Z,64.02
2018-02-01T11:08:59.403Z,63.97
2018-02-01T11:09:48.042Z,63.95
2018-02-01T11:10:48.513Z,63.86
2018-02-01T11:13:49.921Z,63.68
2018-02-01T11:14:50.383Z,63.60
2018-02-01T11:15:50.860Z,63.58
2018-02-01T11:16:51.330Z,63.50
2018-02-01T11:17:51.800Z,63.45
2018-02-01T11:19:04.411Z,63.40
2018-02-01T11:19:52.741Z,63.37
2018-02-01T11:20:53.210Z,63.34
2018-02-01T11:21:53.680Z,63.34
2018-02-01T11:22:54.144Z,63.32
2018-02-01T11:23:54.621Z,63.32
2018-02-01T11:25:55.662Z,63.32
2018-02-01T11:26:56.024Z,63.32
2018-02-01T11:27:56.499Z,63.29
2018-02-01T11:28:56.970Z,63.29
2018-02-01T11:30:57.909Z,63.26
2018-02-01T11:31:58.385Z,63.21
2018-02-01T11:32:58.849Z,63.18
2018-02-01T11:33:59.320Z,63.19
2018-02-01T11:34:59.795Z,63.13
2018-02-01T11:36:00.291Z,63.08
2018-02-01T11:37:00.729Z,63.03
2018-02-01T11:38:01.199Z,62.95
2018-02-01T11:39:01.665Z,62.87
2018-02-01T11:40:02.138Z,62.84
2018-02-01T11:41:02.611Z,62.79
2018-02-01T11:43:03.545Z,62.68
2018-02-01T11:44:04.019Z,62.61
2018-02-01T11:45:04.489Z,62.55
2018-02-01T11:46:04.961Z,62.47
2018-02-01T11:47:05.429Z,62.36
2018-02-01T11:48:05.898Z,62.26
2018-02-01T11:49:06.368Z,62.17
2018-02-01T11:50:06.833Z,62.12
2018-02-01T11:51:07.347Z,62.07
2018-02-01T11:52:07.781Z,62.01
2018-02-01T11:53:08.247Z,62.01
2018-02-01T11:54:08.713Z,61.90
2018-02-01T11:55:09.198Z,61.88
2018-02-01T11:56:09.657Z,61.80
2018-02-01T11:57:10.127Z,61.85
2018-02-01T11:58:10.600Z,61.77
2018-02-01T12:00:11.541Z,61.61
2018-02-01T12:01:12.008Z,61.56
2018-02-01T12:02:12.480Z,61.44
2018-02-01T12:03:12.950Z,61.42
2018-02-01T12:04:13.411Z,61.39
2018-02-01T12:06:14.358Z,61.31
2018-02-01T12:08:15.298Z,61.34
2018-02-01T12:09:15.769Z,61.26
2018-02-01T12:10:16.440Z,61.23
2018-02-01T12:12:17.178Z,61.31
2018-02-01T12:13:17.651Z,61.28
2018-02-01T12:14:18.118Z,61.25
2018-02-01T12:15:18.581Z,61.25
2018-02-01T12:16:19.059Z,61.20
2018-02-01T12:17:19.529Z,61.14
2018-02-01T12:19:20.469Z,61.01
2018-02-01T12:20:32.473Z,61.06
2018-02-01T12:21:21.404Z,61.11
2018-02-01T12:22:21.880Z,61.14
2018-02-01T12:24:22.817Z,61.28
2018-02-01T12:25:23.281Z,61.33
2018-02-01T12:26:23.758Z,61.38
2018-02-01T12:27:24.227Z,61.35
2018-02-01T12:28:24.697Z,61.43
2018-02-01T12:29:25.173Z,61.49
2018-02-01T12:30:25.638Z,61.46
2018-02-01T12:31:26.108Z,61.46
2018-02-01T12:32:26.579Z,61.29
2018-02-01T12:33:27.249Z,61.24
2018-02-01T12:34:27.520Z,61.21
2018-02-01T12:36:28.458Z,61.16
2018-02-01T12:37:28.928Z,60.99
2018-02-01T12:38:29.393Z,60.91
2018-02-01T12:39:29.868Z,60.80
2018-02-01T12:40:30.336Z,60.75
2018-02-01T12:41:30.810Z,60.61
2018-02-01T12:42:31.281Z,60.48
2018-02-01T12:43:31.748Z,60.36
2018-02-01T12:44:32.218Z,60.34
2018-02-01T12:47:33.632Z,60.06
2018-02-01T12:48:34.093Z,60.04
2018-02-01T12:49:34.569Z,59.98
2018-02-01T12:50:35.039Z,60.00
2018-02-01T12:51:35.513Z,59.83
2018-02-01T12:52:35.982Z,59.70
2018-02-01T12:53:36.472Z,59.70
2018-02-01T12:54:36.920Z,59.61
2018-02-01T12:55:37.388Z,59.50
2018-02-01T12:56:37.858Z,59.47
2018-02-01T12:57:38.329Z,59.39
2018-02-01T12:58:38.793Z,59.44
2018-02-01T12:59:39.268Z,59.30
2018-02-01T13:00:39.738Z,59.34
2018-02-01T13:01:40.208Z,59.36
2018-02-01T13:02:40.681Z,59.38
2018-02-01T13:04:41.613Z,59.22
2018-02-01T13:05:42.294Z,59.21
2018-02-01T13:06:42.558Z,59.16
2018-02-01T13:07:43.027Z,59.10
2018-02-01T13:08:43.499Z,59.13
2018-02-01T13:09:43.970Z,59.08
2018-02-01T13:10:44.438Z,59.02
2018-02-01T13:11:44.903Z,59.27
2018-02-01T13:12:45.384Z,59.26
2018-02-01T13:13:45.848Z,59.18
2018-02-01T13:14:46.317Z,59.15
2018-02-01T13:15:46.780Z,59.15
2018-02-01T13:16:47.257Z,59.23
2018-02-01T13:17:47.726Z,59.31
2018-02-01T13:18:48.205Z,59.16
2018-02-01T13:19:48.671Z,59.22
2018-02-01T13:21:49.604Z,59.24
2018-02-01T13:22:50.079Z,59.33
2018-02-01T13:23:50.546Z,59.33
2018-02-01T13:24:51.015Z,59.33
2018-02-01T13:25:51.489Z,59.21
2018-02-01T13:26:51.956Z,59.18
2018-02-01T13:27:52.421Z,59.16
2018-02-01T13:28:52.896Z,59.21
2018-02-01T13:29:53.365Z,59.18
2018-02-01T13:30:53.840Z,59.07
2018-02-01T13:31:54.298Z,58.96
2018-02-01T13:32:54.774Z,59.01
2018-02-01T13:33:55.244Z,58.87
2018-02-01T13:34:55.713Z,58.90
2018-02-01T13:36:56.654Z,59.06
2018-02-01T13:37:57.122Z,59.06
2018-02-01T13:38:57.587Z,59.39
2018-02-01T13:40:58.532Z,60.51
2018-02-01T13:41:59.002Z,60.73
2018-02-01T13:42:59.472Z,60.86
2018-02-01T13:43:59.935Z,61.29
2018-02-01T13:45:00.410Z,61.37
2018-02-01T13:46:00.881Z,61.42
2018-02-01T13:47:01.351Z,61.34
2018-02-01T13:48:01.823Z,61.35
2018-02-01T13:50:02.760Z,61.28
2018-02-01T13:51:03.230Z,61.42
2018-02-01T13:52:03.700Z,61.47
2018-02-01T13:53:04.169Z,61.72
2018-02-01T13:55:05.103Z,61.93
2018-02-01T13:56:05.577Z,62.38
2018-02-01T13:57:06.049Z,62.54
2018-02-01T13:58:06.519Z,62.94
2018-02-01T13:59:06.988Z,63.16
2018-02-01T14:00:07.456Z,63.51
2018-02-01T14:01:07.927Z,63.90
2018-02-01T14:02:08.391Z,63.90
2018-02-01T14:03:08.867Z,64.35
2018-02-01T14:04:09.339Z,64.34
2018-02-01T14:06:10.271Z,63.95
2018-02-01T14:07:10.747Z,63.65
2018-02-01T14:08:11.215Z,63.60